Time;durP1;ratioP1;P1;durP2;ratioP2;P2;SDS_P1;SDS_P2;PMS_P1;PMS_P2;Temp;Humidity;BMP_temperature;BMP_pressure;BME280_temperature;BME280_humidity;BME280_pressure;Samples;Min_cycle;Max_cycle;Signal;HPM_P1;HPM_P2
2021/07/20 00:02:22;;;;;;;;;;;21.20;85.00;;;;;;4313583;33;43835;-79
2021/07/20 00:04:54;;;;;;;;;;;21.20;84.90;;;;;;4302306;33;43943;-79
2021/07/20 00:07:29;;;;;;;;;;;21.20;84.90;;;;;;4302454;33;42933;-79
2021/07/20 00:09:57;;;;;;;;;;;21.20;84.90;;;;;;4302080;33;42980;-79
2021/07/20 00:12:26;;;;;;;;;;;21.20;85.00;;;;;;4302516;33;43434;-79
2021/07/20 00:14:53;;;;;;;;;;;21.20;85.00;;;;;;4302216;33;43491;-79
2021/07/20 00:17:23;;;;;;;;;;;21.10;84.90;;;;;;4313599;33;43262;-79
2021/07/20 00:19:53;;;;;;;;;;;21.10;84.90;;;;;;4313675;33;43067;-79
2021/07/20 00:22:20;;;;;;;;;;;21.10;84.90;;;;;;4313178;33;43967;-79
2021/07/20 00:24:47;;;;;;;;;;;21.10;85.00;;;;;;4313407;33;42739;-79
2021/07/20 00:27:14;;;;;;;;;;;21.10;85.00;;;;;;4313033;33;44123;-79
2021/07/20 00:29:43;;;;;;;;;;;21.10;84.90;;;;;;4313354;33;44089;-79
2021/07/20 00:32:14;;;;;;;;;;;21.00;84.90;;;;;;4314615;33;20432;-79
2021/07/20 00:34:41;;;;;;;;;;;21.00;84.90;;;;;;4302542;33;43993;-79
2021/07/20 00:37:13;;;;;;;;;;;21.00;85.00;;;;;;4313454;33;43535;-79
2021/07/20 00:39:40;;;;;;;;;;;21.00;85.10;;;;;;4302224;33;42791;-79
2021/07/20 00:42:13;;;;;;;;;;;21.00;85.10;;;;;;4302302;33;43943;-79
2021/07/20 00:44:42;;;;;;;;;;;21.00;85.10;;;;;;4302159;33;44434;-80
2021/07/20 00:47:09;;;;;;;;;;;20.90;85.00;;;;;;4301785;33;44761;-79
2021/07/20 00:49:40;;;;;;;;;;;20.90;84.90;;;;;;4312877;33;42815;-79
2021/07/20 00:52:12;;;;;;;;;;;20.90;85.00;;;;;;4312945;33;43093;-79
2021/07/20 00:54:39;;;;;;;;;;;20.90;85.00;;;;;;4302216;33;44764;-79
2021/07/20 00:57:12;;;;;;;;;;;20.90;85.00;;;;;;4302030;33;42687;-80
2021/07/20 00:59:46;;;;;;;;;;;20.90;85.00;;;;;;4313155;33;43176;-79
2021/07/20 01:02:21;;;;;;;;;;;20.80;85.00;;;;;;4302709;33;20045;-79
2021/07/20 01:04:57;;;;;;;;;;;20.80;85.00;;;;;;4302137;33;44080;-79
2021/07/20 01:07:27;;;;;;;;;;;20.80;85.10;;;;;;4301652;33;42814;-80
2021/07/20 01:10:01;;;;;;;;;;;20.80;85.10;;;;;;4312867;33;44872;-80
2021/07/20 01:12:30;;;;;;;;;;;20.80;85.10;;;;;;4301728;33;44192;-80
2021/07/20 01:15:01;;;;;;;;;;;20.80;85.10;;;;;;4301775;33;43828;-79
2021/07/20 01:17:34;;;;;;;;;;;20.80;85.10;;;;;;4301802;33;44077;-79
2021/07/20 01:20:07;;;;;;;;;;;20.80;85.10;;;;;;4301822;33;43598;-79
2021/07/20 01:22:43;;;;;;;;;;;20.70;85.10;;;;;;4301129;33;43821;-79
2021/07/20 01:25:15;;;;;;;;;;;20.70;85.20;;;;;;4301342;33;43473;-79
2021/07/20 01:28:02;;;;;;;;;;;20.70;85.30;;;;;;4301711;33;42258;-79
2021/07/20 01:30:35;;;;;;;;;;;20.70;85.30;;;;;;4301813;33;43964;-80
2021/07/20 01:33:09;;;;;;;;;;;20.70;85.20;;;;;;4313533;33;20006;-79
2021/07/20 01:35:37;;;;;;;;;;;20.70;85.20;;;;;;4301720;33;44207;-80
2021/07/20 01:38:05;;;;;;;;;;;20.60;85.20;;;;;;4301673;33;43176;-80
2021/07/20 01:40:32;;;;;;;;;;;20.70;85.40;;;;;;4301434;33;44301;-79
2021/07/20 01:43:06;;;;;;;;;;;20.60;85.30;;;;;;4312350;33;44562;-80
2021/07/20 01:45:34;;;;;;;;;;;20.60;85.30;;;;;;4301245;33;42799;-79
2021/07/20 01:48:03;;;;;;;;;;;20.60;85.30;;;;;;4301585;33;43237;-79
2021/07/20 01:50:30;;;;;;;;;;;20.60;85.30;;;;;;4311951;33;45198;-79
2021/07/20 01:52:58;;;;;;;;;;;20.60;85.30;;;;;;4312108;33;44272;-79
2021/07/20 01:55:29;;;;;;;;;;;20.60;85.40;;;;;;4301036;33;43021;-79
2021/07/20 01:57:59;;;;;;;;;;;20.50;85.30;;;;;;4301494;33;43909;-79
2021/07/20 02:00:26;;;;;;;;;;;20.50;85.30;;;;;;4301514;33;44137;-80
2021/07/20 02:03:56;;;;;;;;;;;20.50;85.30;;;;;;4311794;33;44161;-79
2021/07/20 02:08:39;;;;;;;;;;;20.50;85.40;;;;;;4301028;33;43762;-80
2021/07/20 02:11:10;;;;;;;;;;;20.50;85.40;;;;;;4301282;33;44428;-79
2021/07/20 02:13:43;;;;;;;;;;;20.50;85.30;;;;;;4301357;33;42813;-79
2021/07/20 02:16:19;;;;;;;;;;;20.50;85.30;;;;;;4301315;33;43960;-79
2021/07/20 02:18:50;;;;;;;;;;;20.40;85.20;;;;;;4312320;33;44126;-79
2021/07/20 02:21:27;;;;;;;;;;;20.40;85.20;;;;;;4312025;33;44192;-79
2021/07/20 02:24:00;;;;;;;;;;;20.40;85.20;;;;;;4301460;33;43478;-79
2021/07/20 02:26:27;;;;;;;;;;;20.40;85.20;;;;;;4312471;33;43957;-79
2021/07/20 02:29:00;;;;;;;;;;;20.40;85.20;;;;;;4301318;33;42909;-79
2021/07/20 02:31:36;;;;;;;;;;;20.30;85.20;;;;;;4300843;33;43761;-79
2021/07/20 02:34:06;;;;;;;;;;;20.30;85.20;;;;;;4314120;33;43251;-79
2021/07/20 02:36:41;;;;;;;;;;;20.30;85.30;;;;;;4315885;33;20450;-79
2021/07/20 02:39:20;;;;;;;;;;;20.30;85.30;;;;;;4314304;33;43643;-79
2021/07/20 02:41:54;;;;;;;;;;;20.30;85.30;;;;;;4303893;33;45069;-79
2021/07/20 02:44:27;;;;;;;;;;;20.30;85.40;;;;;;4315008;33;43256;-79
2021/07/20 02:47:00;;;;;;;;;;;20.30;85.30;;;;;;4303737;33;45135;-80
2021/07/20 02:49:29;;;;;;;;;;;20.20;85.30;;;;;;4314876;33;43604;-80
2021/07/20 02:52:04;;;;;;;;;;;20.20;85.30;;;;;;4303666;33;42871;-80
2021/07/20 02:54:37;;;;;;;;;;;20.20;85.30;;;;;;4303773;33;44635;-79
2021/07/20 02:57:15;;;;;;;;;;;20.20;85.30;;;;;;4314702;33;44911;-79
2021/07/20 02:59:44;;;;;;;;;;;20.20;85.30;;;;;;4303796;33;43342;-79
2021/07/20 03:02:11;;;;;;;;;;;20.20;85.30;;;;;;4314183;33;44518;-79
2021/07/20 03:04:39;;;;;;;;;;;20.20;85.30;;;;;;4314745;33;44307;-79
2021/07/20 03:07:08;;;;;;;;;;;20.20;85.30;;;;;;4315399;33;20356;-79
2021/07/20 03:09:39;;;;;;;;;;;20.20;85.30;;;;;;4303111;33;43197;-79
2021/07/20 03:12:09;;;;;;;;;;;20.10;85.30;;;;;;4303640;33;43505;-79
2021/07/20 03:14:36;;;;;;;;;;;20.10;85.20;;;;;;4303686;33;44877;-80
2021/07/20 03:17:06;;;;;;;;;;;20.10;85.20;;;;;;4314480;33;43026;-79
2021/07/20 03:19:35;;;;;;;;;;;20.10;85.20;;;;;;4303021;33;43315;-79
2021/07/20 03:22:12;;;;;;;;;;;20.10;85.20;;;;;;4302925;33;43123;-79
2021/07/20 03:24:43;;;;;;;;;;;20.10;85.30;;;;;;4303054;33;44057;-79
2021/07/20 03:27:10;;;;;;;;;;;20.10;85.30;;;;;;4314052;33;44290;-79
2021/07/20 03:29:42;;;;;;;;;;;20.00;85.10;;;;;;4314158;33;44277;-79
2021/07/20 03:32:10;;;;;;;;;;;20.10;85.20;;;;;;4314291;33;44164;-79
2021/07/20 03:34:38;;;;;;;;;;;20.00;85.20;;;;;;4302946;33;44049;-79
2021/07/20 03:37:06;;;;;;;;;;;20.00;85.30;;;;;;4303239;33;44305;-79
2021/07/20 03:39:38;;;;;;;;;;;20.00;85.20;;;;;;4313722;33;43439;-79
2021/07/20 03:42:09;;;;;;;;;;;19.90;85.20;;;;;;4303065;33;45811;-79
2021/07/20 03:44:37;;;;;;;;;;;20.00;85.30;;;;;;4301936;33;44042;-79
2021/07/20 03:47:05;;;;;;;;;;;19.90;85.30;;;;;;4314132;33;44412;-79
2021/07/20 03:49:33;;;;;;;;;;;19.90;85.20;;;;;;4313394;33;45387;-79
2021/07/20 03:52:01;;;;;;;;;;;19.90;85.30;;;;;;4302673;33;43939;-79
2021/07/20 03:54:32;;;;;;;;;;;19.90;85.30;;;;;;4313839;33;44295;-79
2021/07/20 03:57:02;;;;;;;;;;;19.90;85.30;;;;;;4313363;33;44290;-79
2021/07/20 03:59:32;;;;;;;;;;;19.90;85.30;;;;;;4313967;33;43759;-80
2021/07/20 04:02:04;;;;;;;;;;;19.90;85.40;;;;;;4302208;33;43098;-80
2021/07/20 04:04:40;;;;;;;;;;;19.80;85.40;;;;;;4302860;33;43982;-79
2021/07/20 04:07:17;;;;;;;;;;;19.90;85.40;;;;;;4302823;33;43793;-79
2021/07/20 04:09:51;;;;;;;;;;;19.80;85.30;;;;;;4314537;33;20046;-79
2021/07/20 04:12:18;;;;;;;;;;;19.80;85.20;;;;;;4302813;33;42479;-79
2021/07/20 04:14:53;;;;;;;;;;;19.80;85.20;;;;;;4313112;33;43764;-79
2021/07/20 04:17:27;;;;;;;;;;;19.80;85.30;;;;;;4302670;33;43052;-79
2021/07/20 04:20:00;;;;;;;;;;;19.80;85.40;;;;;;4313504;33;43478;-79
2021/07/20 04:22:35;;;;;;;;;;;19.80;85.30;;;;;;4302318;33;42982;-79
2021/07/20 04:25:03;;;;;;;;;;;19.80;85.30;;;;;;4313453;33;45256;-79
2021/07/20 04:27:32;;;;;;;;;;;19.80;85.20;;;;;;4302152;33;43255;-79
2021/07/20 04:29:59;;;;;;;;;;;19.70;85.20;;;;;;4302416;33;43470;-79
2021/07/20 04:32:26;;;;;;;;;;;19.70;85.30;;;;;;4301960;33;42686;-79
2021/07/20 04:34:54;;;;;;;;;;;19.70;85.40;;;;;;4302048;33;44291;-79
2021/07/20 04:37:23;;;;;;;;;;;19.70;85.40;;;;;;4301925;33;44186;-79
2021/07/20 04:39:52;;;;;;;;;;;19.70;85.30;;;;;;4314567;33;20005;-79
2021/07/20 04:42:20;;;;;;;;;;;19.70;86.10;;;;;;4313039;33;43310;-79
2021/07/20 04:44:47;;;;;;;;;;;19.70;85.40;;;;;;4313158;33;44230;-79
2021/07/20 04:47:14;;;;;;;;;;;19.60;85.40;;;;;;4313248;33;43279;-81
2021/07/20 04:49:44;;;;;;;;;;;19.60;85.50;;;;;;4301862;33;42311;-78
2021/07/20 04:52:12;;;;;;;;;;;19.60;85.50;;;;;;4313207;33;43499;-78
2021/07/20 04:54:43;;;;;;;;;;;19.60;85.50;;;;;;4302140;33;45204;-78
2021/07/20 04:57:10;;;;;;;;;;;19.60;85.50;;;;;;4301965;33;44869;-79
2021/07/20 04:59:39;;;;;;;;;;;19.60;85.50;;;;;;4312925;33;43914;-78
2021/07/20 05:02:07;;;;;;;;;;;19.60;85.50;;;;;;4301302;33;43272;-79
2021/07/20 05:04:36;;;;;;;;;;;19.60;85.50;;;;;;4312445;33;43807;-78
2021/07/20 05:07:10;;;;;;;;;;;19.60;85.50;;;;;;4312637;33;44619;-79
2021/07/20 05:09:46;;;;;;;;;;;19.60;85.50;;;;;;4302049;33;43925;-79
2021/07/20 05:12:13;;;;;;;;;;;19.50;85.40;;;;;;4302032;33;44026;-79
2021/07/20 05:14:40;;;;;;;;;;;19.50;85.40;;;;;;4312948;33;43632;-78
2021/07/20 05:17:33;;;;;;;;;;;19.50;85.40;;;;;;4301904;33;46343;-78
2021/07/20 05:20:06;;;;;;;;;;;19.50;85.40;;;;;;4301728;33;44617;-78
2021/07/20 05:22:34;;;;;;;;;;;19.50;85.40;;;;;;4301752;33;44136;-79
2021/07/20 05:25:08;;;;;;;;;;;19.50;85.50;;;;;;4312222;33;44221;-78
2021/07/20 05:27:46;;;;;;;;;;;19.50;85.60;;;;;;4301879;33;44245;-78
2021/07/20 05:30:19;;;;;;;;;;;19.40;85.40;;;;;;4301738;33;43861;-78
2021/07/20 05:32:53;;;;;;;;;;;19.40;85.70;;;;;;4301711;33;44213;-78
2021/07/20 05:35:29;;;;;;;;;;;19.40;85.60;;;;;;4301695;33;43916;-78
2021/07/20 05:38:04;;;;;;;;;;;19.40;85.70;;;;;;4301801;33;45842;-79
2021/07/20 05:40:31;;;;;;;;;;;19.40;85.70;;;;;;4312618;33;44335;-79
2021/07/20 05:43:07;;;;;;;;;;;19.40;85.80;;;;;;4312506;33;43199;-78
2021/07/20 05:45:42;;;;;;;;;;;19.40;85.70;;;;;;4312541;33;43905;-79
2021/07/20 05:48:20;;;;;;;;;;;19.40;85.70;;;;;;4312628;33;43163;-78
2021/07/20 05:50:58;;;;;;;;;;;19.30;85.80;;;;;;4301107;33;42814;-78
2021/07/20 05:53:28;;;;;;;;;;;19.30;86.00;;;;;;4312099;33;42755;-78
2021/07/20 05:55:59;;;;;;;;;;;19.30;86.10;;;;;;4312419;33;43584;-79
2021/07/20 05:58:26;;;;;;;;;;;19.30;86.00;;;;;;4312531;33;42501;-78
2021/07/20 06:00:54;;;;;;;;;;;19.30;86.20;;;;;;4300959;33;43820;-78
2021/07/20 06:03:22;;;;;;;;;;;19.40;86.40;;;;;;4311670;33;44135;-79
2021/07/20 06:05:52;;;;;;;;;;;19.30;86.30;;;;;;4311950;33;43562;-78
2021/07/20 06:08:19;;;;;;;;;;;19.30;86.30;;;;;;4303135;33;43533;-78
2021/07/20 06:10:52;;;;;;;;;;;19.30;86.30;;;;;;4314948;33;43366;-79
2021/07/20 06:13:20;;;;;;;;;;;19.30;86.30;;;;;;4305570;33;20399;-78
2021/07/20 06:15:50;;;;;;;;;;;19.30;86.40;;;;;;4314904;33;42223;-78
2021/07/20 06:18:17;;;;;;;;;;;19.30;86.60;;;;;;4315023;33;43278;-78
2021/07/20 06:20:59;;;;;;;;;;;19.30;86.60;;;;;;4303806;33;41855;-78
2021/07/20 06:23:27;;;;;;;;;;;19.30;86.60;;;;;;4304128;33;43266;-78
2021/07/20 06:26:00;;;;;;;;;;;19.30;86.50;;;;;;4304173;33;43284;-79
2021/07/20 06:28:33;;;;;;;;;;;19.30;86.80;;;;;;4315188;33;44350;-79
2021/07/20 06:31:03;;;;;;;;;;;19.30;86.90;;;;;;4303857;33;43461;-78
2021/07/20 06:33:34;;;;;;;;;;;19.30;86.90;;;;;;4304071;33;43853;-78
2021/07/20 06:36:08;;;;;;;;;;;19.30;87.00;;;;;;4315032;33;43488;-78
2021/07/20 06:38:36;;;;;;;;;;;19.30;87.10;;;;;;4315091;33;43500;-78
2021/07/20 06:41:12;;;;;;;;;;;19.30;87.20;;;;;;4314627;33;44222;-78
2021/07/20 06:43:45;;;;;;;;;;;19.30;87.20;;;;;;4315920;33;20407;-78
2021/07/20 06:46:19;;;;;;;;;;;19.30;87.20;;;;;;4303880;33;45626;-79
2021/07/20 06:48:49;;;;;;;;;;;19.30;87.20;;;;;;4303623;33;42890;-78
2021/07/20 06:51:22;;;;;;;;;;;19.30;87.20;;;;;;4314235;33;45907;-78
2021/07/20 06:53:51;;;;;;;;;;;19.30;87.30;;;;;;4314986;33;44005;-79
2021/07/20 06:56:20;;;;;;;;;;;19.30;87.40;;;;;;4314433;33;44331;-79
2021/07/20 06:58:53;;;;;;;;;;;19.30;87.40;;;;;;4303340;33;42365;-78
2021/07/20 07:01:25;;;;;;;;;;;19.30;87.40;;;;;;4314403;33;44134;-78
2021/07/20 07:04:12;;;;;;;;;;;19.30;87.40;;;;;;4303377;33;43937;-78
2021/07/20 07:06:45;;;;;;;;;;;19.30;87.50;;;;;;4303210;33;43482;-78
2021/07/20 07:09:20;;;;;;;;;;;19.40;87.60;;;;;;4314532;33;43634;-79
2021/07/20 07:11:53;;;;;;;;;;;19.40;87.60;;;;;;4314746;33;43862;-78
2021/07/20 07:14:30;;;;;;;;;;;19.40;87.70;;;;;;4315320;33;20487;-78
2021/07/20 07:17:03;;;;;;;;;;;19.40;87.70;;;;;;4314428;33;43285;-79
2021/07/20 07:19:30;;;;;;;;;;;19.40;87.70;;;;;;4303557;33;45887;-79
2021/07/20 07:22:00;;;;;;;;;;;19.40;87.70;;;;;;4303157;33;43209;-79
2021/07/20 07:24:30;;;;;;;;;;;19.40;87.80;;;;;;4302964;33;43209;-79
2021/07/20 07:27:00;;;;;;;;;;;19.50;87.80;;;;;;4313886;33;43610;-78
2021/07/20 07:29:29;;;;;;;;;;;19.50;87.80;;;;;;4314092;33;44378;-79
2021/07/20 07:32:01;;;;;;;;;;;19.50;87.90;;;;;;4303299;33;45085;-78
2021/07/20 07:34:30;;;;;;;;;;;19.50;87.80;;;;;;4303235;33;44010;-79
2021/07/20 07:36:58;;;;;;;;;;;19.40;87.80;;;;;;4302823;33;42979;-79
2021/07/20 07:39:32;;;;;;;;;;;19.50;87.80;;;;;;4303448;33;43220;-79
2021/07/20 07:42:00;;;;;;;;;;;19.50;87.80;;;;;;4303044;33;43813;-79
2021/07/20 07:44:31;;;;;;;;;;;19.50;87.80;;;;;;4303707;33;20049;-78
2021/07/20 07:47:03;;;;;;;;;;;19.50;88.60;;;;;;4302667;33;43847;-79
2021/07/20 07:49:37;;;;;;;;;;;19.50;87.80;;;;;;4313971;33;44344;-79
2021/07/20 07:52:13;;;;;;;;;;;19.50;87.80;;;;;;4313488;33;42779;-78
2021/07/20 07:54:44;;;;;;;;;;;19.50;87.70;;;;;;4303102;33;45856;-78
2021/07/20 07:57:17;;;;;;;;;;;19.60;87.80;;;;;;4303011;33;43141;-79
2021/07/20 07:59:54;;;;;;;;;;;19.60;87.70;;;;;;4302566;33;42585;-79
2021/07/20 08:02:30;;;;;;;;;;;19.60;87.80;;;;;;4313593;33;43155;-79
2021/07/20 08:04:58;;;;;;;;;;;19.60;87.70;;;;;;4302769;33;43054;-79
2021/07/20 08:07:27;;;;;;;;;;;19.50;87.70;;;;;;4302866;33;42164;-78
2021/07/20 08:09:56;;;;;;;;;;;19.60;87.70;;;;;;4313530;33;44671;-79
2021/07/20 08:12:26;;;;;;;;;;;19.60;87.70;;;;;;4313787;33;44218;-79
2021/07/20 08:14:58;;;;;;;;;;;19.60;87.60;;;;;;4303441;33;20062;-79
2021/07/20 08:17:28;;;;;;;;;;;19.60;87.40;;;;;;4302211;33;43352;-79
2021/07/20 08:20:04;;;;;;;;;;;19.60;87.50;;;;;;4302209;33;43862;-79
2021/07/20 08:22:37;;;;;;;;;;;19.60;87.60;;;;;;4302608;33;43945;-79
2021/07/20 08:25:12;;;;;;;;;;;19.60;87.50;;;;;;4313772;33;43861;-79
2021/07/20 08:27:45;;;;;;;;;;;19.60;87.50;;;;;;4302811;33;43698;-80
2021/07/20 08:30:18;;;;;;;;;;;19.60;87.50;;;;;;4302299;33;43944;-79
2021/07/20 08:32:51;;;;;;;;;;;19.60;87.50;;;;;;4313488;33;44215;-79
2021/07/20 08:35:32;;;;;;;;;;;19.60;87.40;;;;;;4302554;33;43292;-79
2021/07/20 08:38:10;;;;;;;;;;;19.70;87.50;;;;;;4302545;33;43508;-79
2021/07/20 08:40:41;;;;;;;;;;;19.70;87.50;;;;;;4302234;33;42777;-79
2021/07/20 08:43:13;;;;;;;;;;;19.70;87.50;;;;;;4313216;33;42902;-79
2021/07/20 08:46:04;;;;;;;;;;;19.70;87.60;;;;;;4302595;33;20005;-79
2021/07/20 08:48:50;;;;;;;;;;;19.70;87.60;;;;;;4286285;33;42510;-79
2021/07/20 08:51:26;;;;;;;;;;;19.70;87.50;;;;;;4313196;33;43849;-79
2021/07/20 08:53:57;;;;;;;;;;;19.70;87.30;;;;;;4312836;33;43917;-79
2021/07/20 08:56:25;;;;;;;;;;;19.70;87.50;;;;;;4302324;33;42834;-79
2021/07/20 08:58:59;;;;;;;;;;;19.70;87.60;;;;;;4301745;33;44187;-79
2021/07/20 09:01:33;;;;;;;;;;;19.70;87.40;;;;;;4301657;33;43027;-79
2021/07/20 09:04:05;;;;;;;;;;;19.70;87.50;;;;;;4301846;33;42153;-79
2021/07/20 09:06:45;;;;;;;;;;;19.70;87.60;;;;;;4302420;33;43194;-79
2021/07/20 09:09:18;;;;;;;;;;;19.70;87.60;;;;;;4301849;33;42429;-78
2021/07/20 09:11:52;;;;;;;;;;;19.70;87.50;;;;;;4302023;33;43396;-79
2021/07/20 09:14:33;;;;;;;;;;;19.70;87.50;;;;;;4301811;33;43931;-79
2021/07/20 09:17:10;;;;;;;;;;;19.80;87.70;;;;;;4313359;33;20006;-79
2021/07/20 09:19:58;;;;;;;;;;;19.80;87.60;;;;;;4302014;33;43731;-79
2021/07/20 09:22:35;;;;;;;;;;;19.70;87.60;;;;;;4301524;33;42266;-79
2021/07/20 09:25:05;;;;;;;;;;;19.70;87.50;;;;;;4301698;33;43180;-79
2021/07/20 09:27:53;;;;;;;;;;;19.80;87.50;;;;;;4301709;33;43050;-79
2021/07/20 09:30:25;;;;;;;;;;;19.80;87.50;;;;;;4301364;33;44347;-79
2021/07/20 09:33:01;;;;;;;;;;;19.80;87.40;;;;;;4312610;33;44234;-79
2021/07/20 09:35:47;;;;;;;;;;;19.80;87.50;;;;;;4312603;33;43063;-79
2021/07/20 09:38:33;;;;;;;;;;;19.80;87.40;;;;;;4312144;33;44039;-79
2021/07/20 09:41:12;;;;;;;;;;;19.80;87.50;;;;;;4301469;33;43454;-78
2021/07/20 09:43:49;;;;;;;;;;;19.80;87.40;;;;;;4311504;33;44341;-79
2021/07/20 09:46:34;;;;;;;;;;;19.80;87.30;;;;;;4312773;33;43968;-79
2021/07/20 09:49:27;;;;;;;;;;;19.80;87.30;;;;;;4301029;33;43447;-79
2021/07/20 09:52:13;;;;;;;;;;;19.80;87.20;;;;;;4301454;33;43059;-79
2021/07/20 09:55:00;;;;;;;;;;;19.80;87.10;;;;;;4312736;33;41773;-79
2021/07/20 09:57:49;;;;;;;;;;;19.80;87.10;;;;;;4301570;33;44042;-79
2021/07/20 10:00:24;;;;;;;;;;;19.80;87.10;;;;;;4301417;33;43465;-78
2021/07/20 10:03:09;;;;;;;;;;;19.80;87.10;;;;;;4301088;33;43896;-79
2021/07/20 10:05:50;;;;;;;;;;;19.90;87.10;;;;;;4312303;33;44961;-79
2021/07/20 10:08:21;;;;;;;;;;;19.90;87.10;;;;;;4312291;33;43758;-79
2021/07/20 10:11:07;;;;;;;;;;;19.80;87.00;;;;;;4312282;33;43911;-79
2021/07/20 10:13:37;;;;;;;;;;;19.90;87.10;;;;;;4312061;33;42950;-80
2021/07/20 10:16:15;;;;;;;;;;;19.90;87.00;;;;;;4301527;33;44536;-80
2021/07/20 10:19:01;;;;;;;;;;;19.90;86.90;;;;;;4313099;33;20002;-79
2021/07/20 10:21:30;;;;;;;;;;;19.90;87.00;;;;;;4301281;33;42616;-79
2021/07/20 10:24:09;;;;;;;;;;;19.90;87.00;;;;;;4311750;33;43133;-79
2021/07/20 10:26:45;;;;;;;;;;;19.90;87.00;;;;;;4301486;33;43916;-80
2021/07/20 10:29:18;;;;;;;;;;;19.90;86.90;;;;;;4301424;33;44263;-80
2021/07/20 10:31:49;;;;;;;;;;;20.00;87.00;;;;;;4301419;33;45675;-79
2021/07/20 10:34:20;;;;;;;;;;;20.00;86.90;;;;;;4312264;33;43492;-79
2021/07/20 10:36:52;;;;;;;;;;;19.90;86.90;;;;;;4301230;33;45523;-78
2021/07/20 10:39:42;;;;;;;;;;;20.00;87.00;;;;;;4312314;33;45796;-79
2021/07/20 10:42:32;;;;;;;;;;;20.00;87.00;;;;;;4301112;33;44120;-80
2021/07/20 10:45:08;;;;;;;;;;;20.00;86.90;;;;;;4311528;33;43720;-80
2021/07/20 10:47:45;;;;;;;;;;;20.00;87.00;;;;;;4300716;33;43485;-79
2021/07/20 10:50:18;;;;;;;;;;;20.00;86.90;;;;;;4301259;33;43243;-80
2021/07/20 10:53:16;;;;;;;;;;;20.10;87.10;;;;;;4312293;33;44228;-79
2021/07/20 10:55:52;;;;;;;;;;;20.10;87.10;;;;;;4264548;33;43310;-79
2021/07/20 10:58:28;;;;;;;;;;;20.10;87.10;;;;;;4303731;33;43474;-79
2021/07/20 11:01:03;;;;;;;;;;;20.10;87.10;;;;;;4314452;33;42854;-79
2021/07/20 11:03:51;;;;;;;;;;;20.10;87.10;;;;;;4314145;33;44640;-79
2021/07/20 11:06:23;;;;;;;;;;;20.10;87.10;;;;;;4295843;33;43483;-80
2021/07/20 11:08:54;;;;;;;;;;;20.20;87.20;;;;;;4303552;33;43484;-81
2021/07/20 11:11:32;;;;;;;;;;;20.20;87.10;;;;;;4314103;33;44286;-79
2021/07/20 11:14:00;;;;;;;;;;;20.20;87.10;;;;;;4303608;33;44266;-80
2021/07/20 11:16:30;;;;;;;;;;;20.20;87.00;;;;;;4314020;33;42817;-79
2021/07/20 11:18:59;;;;;;;;;;;20.20;87.00;;;;;;4303231;33;43964;-80
2021/07/20 11:21:30;;;;;;;;;;;20.20;87.00;;;;;;4303369;33;44226;-79
2021/07/20 11:23:57;;;;;;;;;;;20.20;87.00;;;;;;4314338;33;44169;-79
2021/07/20 11:26:31;;;;;;;;;;;20.30;87.00;;;;;;4313806;33;44920;-80
2021/07/20 11:28:58;;;;;;;;;;;20.30;87.10;;;;;;4303569;33;44405;-80
2021/07/20 11:31:44;;;;;;;;;;;20.30;87.10;;;;;;4303293;33;43288;-80
2021/07/20 11:34:14;;;;;;;;;;;20.30;87.10;;;;;;4303087;33;43519;-80
2021/07/20 11:36:42;;;;;;;;;;;20.30;87.10;;;;;;4314239;33;43105;-80
2021/07/20 11:39:15;;;;;;;;;;;20.30;87.10;;;;;;4302731;33;44211;-79
2021/07/20 11:41:53;;;;;;;;;;;20.40;87.10;;;;;;4302919;33;43796;-80
2021/07/20 11:44:35;;;;;;;;;;;20.40;87.10;;;;;;4302825;33;43838;-80
2021/07/20 11:47:13;;;;;;;;;;;20.40;87.10;;;;;;4303275;33;43855;-79
2021/07/20 11:49:58;;;;;;;;;;;20.40;87.10;;;;;;4315410;33;19994;-80
2021/07/20 11:52:57;;;;;;;;;;;20.40;87.10;;;;;;4314237;33;44908;-80
2021/07/20 11:55:29;;;;;;;;;;;20.50;87.20;;;;;;4302918;33;44071;-80
2021/07/20 11:58:10;;;;;;;;;;;20.50;87.00;;;;;;4314163;33;44208;-81
2021/07/20 12:00:58;;;;;;;;;;;20.50;87.10;;;;;;4302958;33;44907;-80
2021/07/20 12:03:34;;;;;;;;;;;20.50;87.10;;;;;;4302652;33;43245;-80
2021/07/20 12:06:37;;;;;;;;;;;20.50;87.00;;;;;;4302223;33;43994;-80
2021/07/20 12:09:13;;;;;;;;;;;20.50;87.00;;;;;;4313673;33;42270;-80
2021/07/20 12:11:52;;;;;;;;;;;20.60;87.10;;;;;;4302889;33;43994;-80
2021/07/20 12:14:31;;;;;;;;;;;20.60;87.10;;;;;;4302797;33;43944;-80
2021/07/20 12:17:10;;;;;;;;;;;20.60;87.00;;;;;;4303004;33;43473;-80
2021/07/20 12:19:37;;;;;;;;;;;20.70;87.00;;;;;;4302981;33;44140;-81
2021/07/20 12:22:15;;;;;;;;;;;20.70;87.00;;;;;;4313366;33;43229;-80
2021/07/20 12:24:47;;;;;;;;;;;20.70;87.10;;;;;;4302625;33;43179;-79
2021/07/20 12:27:15;;;;;;;;;;;20.70;87.10;;;;;;4302199;33;43430;-79
2021/07/20 12:29:52;;;;;;;;;;;20.70;87.10;;;;;;4313554;33;44536;-78
2021/07/20 12:32:26;;;;;;;;;;;20.70;87.10;;;;;;4313942;33;42294;-80
2021/07/20 12:34:53;;;;;;;;;;;20.80;87.20;;;;;;4302729;33;43940;-78
2021/07/20 12:37:29;;;;;;;;;;;20.80;87.90;;;;;;4302050;33;43154;-79
2021/07/20 12:40:00;;;;;;;;;;;20.80;87.10;;;;;;4302425;33;43103;-80
2021/07/20 12:42:35;;;;;;;;;;;20.80;87.00;;;;;;4302575;33;45254;-81
2021/07/20 12:45:04;;;;;;;;;;;20.80;86.80;;;;;;4302621;33;42795;-81
2021/07/20 12:47:46;;;;;;;;;;;20.90;86.90;;;;;;4313649;33;43386;-80
2021/07/20 12:50:14;;;;;;;;;;;20.90;87.00;;;;;;4302235;33;43000;-80
2021/07/20 12:52:43;;;;;;;;;;;20.90;86.80;;;;;;4313892;33;20038;-80
2021/07/20 12:55:14;;;;;;;;;;;21.00;86.80;;;;;;4313129;33;44247;-79
2021/07/20 12:58:02;;;;;;;;;;;21.00;86.60;;;;;;4302217;33;44130;-79
2021/07/20 13:00:37;;;;;;;;;;;21.00;86.70;;;;;;4312302;33;42787;-79
2021/07/20 13:03:06;;;;;;;;;;;21.00;86.80;;;;;;4312997;33;44248;-80
2021/07/20 13:05:42;;;;;;;;;;;21.00;86.80;;;;;;4301711;33;42613;-80
2021/07/20 13:08:18;;;;;;;;;;;21.10;87.20;;;;;;4313194;33;43967;-80
2021/07/20 13:10:49;;;;;;;;;;;21.10;86.90;;;;;;4313045;33;44137;-81
2021/07/20 13:13:18;;;;;;;;;;;21.10;86.90;;;;;;4301978;33;46049;-80
2021/07/20 13:15:52;;;;;;;;;;;21.20;87.00;;;;;;4301919;33;43178;-79
2021/07/20 13:18:29;;;;;;;;;;;21.20;86.90;;;;;;4312473;33;44289;-80
2021/07/20 13:21:27;;;;;;;;;;;21.20;86.90;;;;;;4301814;33;44963;-81
2021/07/20 13:24:00;;;;;;;;;;;21.20;87.00;;;;;;4302761;33;20003;-80
2021/07/20 13:26:42;;;;;;;;;;;21.30;87.00;;;;;;4301709;33;43864;-80
2021/07/20 13:29:19;;;;;;;;;;;21.30;87.00;;;;;;4312051;33;42575;-80
2021/07/20 13:32:00;;;;;;;;;;;21.40;87.10;;;;;;4312379;33;44236;-82
2021/07/20 13:34:28;;;;;;;;;;;21.40;87.10;;;;;;4301365;33;42863;-82
2021/07/20 13:37:06;;;;;;;;;;;21.40;87.00;;;;;;4301329;33;42780;-79
2021/07/20 13:39:45;;;;;;;;;;;21.40;86.90;;;;;;4301572;33;44200;-80
2021/07/20 13:42:21;;;;;;;;;;;21.50;87.10;;;;;;4301206;33;44383;-80
2021/07/20 13:44:52;;;;;;;;;;;21.50;87.10;;;;;;4312521;33;44187;-79
2021/07/20 13:47:20;;;;;;;;;;;21.60;87.20;;;;;;4312669;33;43676;-80
2021/07/20 13:49:48;;;;;;;;;;;21.60;87.20;;;;;;4301041;33;43805;-79
2021/07/20 13:52:16;;;;;;;;;;;21.60;87.20;;;;;;4312111;33;44235;-80
2021/07/20 13:54:50;;;;;;;;;;;21.60;87.30;;;;;;4313326;33;20002;-79
2021/07/20 13:57:17;;;;;;;;;;;21.60;87.20;;;;;;4301143;33;43023;-80
2021/07/20 13:59:51;;;;;;;;;;;21.70;87.30;;;;;;4311664;33;43593;-80
2021/07/20 14:02:20;;;;;;;;;;;21.70;87.30;;;;;;4301048;33;44158;-80
2021/07/20 14:04:56;;;;;;;;;;;21.70;87.30;;;;;;4312110;33;43358;-79
2021/07/20 14:07:32;;;;;;;;;;;21.80;87.40;;;;;;4301049;33;42849;-80
2021/07/20 14:10:09;;;;;;;;;;;21.80;87.40;;;;;;4312211;33;44233;-80
2021/07/20 14:12:36;;;;;;;;;;;21.80;87.40;;;;;;4302406;33;20065;-79
2021/07/20 14:15:10;;;;;;;;;;;21.80;87.30;;;;;;4301081;33;43543;-80
2021/07/20 14:17:37;;;;;;;;;;;21.90;87.30;;;;;;4311853;33;43314;-80
2021/07/20 14:20:06;;;;;;;;;;;21.90;87.40;;;;;;4301316;33;43958;-80
2021/07/20 14:22:33;;;;;;;;;;;21.90;87.40;;;;;;4300909;33;44107;-80
2021/07/20 14:25:06;;;;;;;;;;;21.90;87.50;;;;;;4300922;33;43847;-80
2021/07/20 14:27:39;;;;;;;;;;;22.00;87.60;;;;;;4301061;33;43414;-79
2021/07/20 14:30:17;;;;;;;;;;;22.00;87.50;;;;;;4303328;33;43802;-80
2021/07/20 14:32:53;;;;;;;;;;;22.00;87.50;;;;;;4304178;33;43987;-80
2021/07/20 14:35:36;;;;;;;;;;;22.00;87.30;;;;;;4304216;33;43349;-80
2021/07/20 14:38:05;;;;;;;;;;;22.10;87.40;;;;;;4304045;33;43883;-79
2021/07/20 14:40:36;;;;;;;;;;;22.10;87.20;;;;;;4314951;33;43351;-80
2021/07/20 14:43:05;;;;;;;;;;;22.20;87.20;;;;;;4304018;33;43227;-80
2021/07/20 14:45:35;;;;;;;;;;;22.10;87.20;;;;;;4303492;33;43158;-79
2021/07/20 14:48:07;;;;;;;;;;;22.20;87.30;;;;;;4303653;33;43960;-79
2021/07/20 14:50:58;;;;;;;;;;;22.20;87.20;;;;;;4313424;33;45382;-79
2021/07/20 14:53:27;;;;;;;;;;;22.20;87.00;;;;;;4303397;33;43404;-79
2021/07/20 14:56:08;;;;;;;;;;;22.20;86.90;;;;;;4315431;33;20050;-79